Huntsville's Hourly Summary for Saturday, July 7, 2018
Hour Temp
(f)
RH
(%)
Solar Rad.
(MJ/m2)
Rainfall
(in)
Wind
(mph)
7/7/2018 12:00 AM 76 81 0 0 0
7/7/2018 1:00 AM 75 84 0 0 0.11
7/7/2018 2:00 AM 75 85 0 0 0.07
7/7/2018 3:00 AM 74 85 0 0 0
7/7/2018 4:00 AM 73 88 0 0 0
7/7/2018 5:00 AM 73 87 0 0 0.04
7/7/2018 6:00 AM 73 87 0.06 0 0.14
7/7/2018 7:00 AM 74 83 0.3 0 0.76
7/7/2018 8:00 AM 77 76 0.82 0 0
7/7/2018 9:00 AM 80 68 1.41 0 0.09
7/7/2018 10:00 AM 83 66 1.96 0 1.26
7/7/2018 11:00 AM 84 56 2.54 0 2.13
7/7/2018 12:00 PM 86 52 2.66 0 2.83
7/7/2018 1:00 PM 86 50 2.39 0 3.16
7/7/2018 2:00 PM 78 55 0.35 0.56 3.03
7/7/2018 3:00 PM 73 79 1.09 0.02 0.84
7/7/2018 4:00 PM 78 76 1.36 0 0.89
7/7/2018 5:00 PM 78 75 0.9 0 0.75
7/7/2018 6:00 PM 79 72 0.69 0 1.38
7/7/2018 7:00 PM 75 77 0.05 0.03 0.28
7/7/2018 8:00 PM 74 88 0.01 0 0
7/7/2018 9:00 PM 72 88 0 0 0
7/7/2018 10:00 PM 71 89 0 0 0
7/7/2018 11:00 PM 71 91 0 0 0
Data Summary 76 76 16.59 0.61 0.74